Time;durP1;ratioP1;P1;durP2;ratioP2;P2;SDS_P1;SDS_P2;PMS_P1;PMS_P2;Temp;Humidity;BMP_temperature;BMP_pressure;BME280_temperature;BME280_humidity;BME280_pressure;Samples;Min_cycle;Max_cycle;Signal;HPM_P1;HPM_P2
2021/12/23 00:01:31;;;;;;;;;;;-3.30;99.90;;;;;;5053908;28;20356;-48
2021/12/23 00:03:57;;;;;;;;;;;-3.40;99.90;;;;;;5050445;28;19925;-50
2021/12/23 00:06:24;;;;;;;;;;;-3.30;99.90;;;;;;5050963;28;19971;-49
2021/12/23 00:08:51;;;;;;;;;;;-3.40;99.90;;;;;;5052081;28;19929;-48
2021/12/23 00:11:18;;;;;;;;;;;-3.40;99.90;;;;;;5045998;28;19970;-50
2021/12/23 00:13:51;;;;;;;;;;;-3.40;99.90;;;;;;5055364;28;20003;-50
2021/12/23 00:16:30;;;;;;;;;;;-3.40;99.90;;;;;;5046087;28;19929;-51
2021/12/23 00:19:03;;;;;;;;;;;-3.30;99.90;;;;;;5046201;28;19924;-50
2021/12/23 00:24:14;;;;;;;;;;;-3.20;99.90;;;;;;5047218;28;19927;-50
2021/12/23 00:26:41;;;;;;;;;;;-3.20;99.90;;;;;;5051956;28;19932;-49
2021/12/23 00:29:08;;;;;;;;;;;-3.20;99.90;;;;;;5046815;28;19925;-49
2021/12/23 00:31:36;;;;;;;;;;;-3.20;99.90;;;;;;5050957;28;19924;-50
2021/12/23 00:34:02;;;;;;;;;;;-3.20;99.90;;;;;;5045971;28;19925;-49
2021/12/23 00:36:29;;;;;;;;;;;-3.10;99.90;;;;;;5051466;28;19944;-48
2021/12/23 00:38:56;;;;;;;;;;;-3.00;99.90;;;;;;5042961;28;19991;-47
2021/12/23 00:41:29;;;;;;;;;;;-3.00;99.90;;;;;;5047222;28;20055;-48
2021/12/23 00:43:56;;;;;;;;;;;-3.00;99.90;;;;;;5050504;28;20403;-48
2021/12/23 00:46:22;;;;;;;;;;;-2.90;99.90;;;;;;5043890;28;19929;-51
2021/12/23 00:48:50;;;;;;;;;;;-2.90;99.90;;;;;;5037384;28;19925;-48
2021/12/23 00:51:17;;;;;;;;;;;-2.90;99.90;;;;;;5043667;28;20387;-48
2021/12/23 00:53:47;;;;;;;;;;;-2.90;99.90;;;;;;5052374;28;19925;-48
2021/12/23 00:56:14;;;;;;;;;;;-2.90;99.90;;;;;;5051341;28;19925;-49
2021/12/23 00:58:41;;;;;;;;;;;-2.80;99.90;;;;;;5050679;28;19924;-49
2021/12/23 01:01:08;;;;;;;;;;;-2.80;99.90;;;;;;5045911;28;19925;-49
2021/12/23 01:03:35;;;;;;;;;;;-2.80;99.90;;;;;;5035351;28;21944;-48
2021/12/23 01:06:03;;;;;;;;;;;-2.80;99.90;;;;;;5044059;28;19983;-49
2021/12/23 01:08:30;;;;;;;;;;;-2.80;99.90;;;;;;5052174;28;19932;-49
2021/12/23 01:11:00;;;;;;;;;;;-2.80;99.90;;;;;;5045124;28;19980;-51
2021/12/23 01:13:29;;;;;;;;;;;-2.90;99.90;;;;;;5053153;28;19924;-50
2021/12/23 01:16:02;;;;;;;;;;;-3.00;99.90;;;;;;5047439;28;19978;-48
2021/12/23 01:18:31;;;;;;;;;;;-2.90;99.90;;;;;;5044909;28;19957;-49
2021/12/23 01:21:15;;;;;;;;;;;-2.90;99.90;;;;;;5039414;28;20381;-50
2021/12/23 01:23:45;;;;;;;;;;;-2.90;99.90;;;;;;5039355;28;19928;-49
2021/12/23 01:26:17;;;;;;;;;;;-2.90;99.90;;;;;;5044418;28;19925;-50
2021/12/23 01:28:43;;;;;;;;;;;-2.90;99.90;;;;;;5040622;28;19928;-51
2021/12/23 01:31:10;;;;;;;;;;;-3.00;99.90;;;;;;5051219;28;19928;-48
2021/12/23 01:33:37;;;;;;;;;;;-3.00;99.90;;;;;;5050392;28;19925;-48
2021/12/23 01:36:05;;;;;;;;;;;-3.10;99.90;;;;;;5037610;28;20357;-50
2021/12/23 01:38:31;;;;;;;;;;;-3.20;99.90;;;;;;5048551;28;19952;-48
2021/12/23 01:41:03;;;;;;;;;;;-3.20;99.90;;;;;;5032688;28;19925;-49
2021/12/23 01:43:30;;;;;;;;;;;-3.30;99.90;;;;;;5034168;28;19995;-52
2021/12/23 01:46:00;;;;;;;;;;;-3.30;99.90;;;;;;5051558;28;20046;-49
2021/12/23 01:48:26;;;;;;;;;;;-3.30;99.90;;;;;;5050908;28;19937;-49
2021/12/23 01:50:56;;;;;;;;;;;-3.20;99.90;;;;;;5051036;28;19924;-49
2021/12/23 01:53:23;;;;;;;;;;;-3.20;99.90;;;;;;5050333;28;19988;-48
2021/12/23 01:55:50;;;;;;;;;;;-3.20;99.90;;;;;;5049685;28;19955;-49
2021/12/23 01:58:18;;;;;;;;;;;-3.10;99.90;;;;;;5050720;28;20406;-51
2021/12/23 02:00:47;;;;;;;;;;;-3.00;99.90;;;;;;5032624;28;19925;-49
2021/12/23 02:03:14;;;;;;;;;;;-3.10;99.90;;;;;;5031264;28;19925;-48
2021/12/23 02:05:41;;;;;;;;;;;-3.00;99.90;;;;;;5034272;28;19929;-49
2021/12/23 02:08:09;;;;;;;;;;;-3.00;99.90;;;;;;5055056;28;19924;-48
2021/12/23 02:10:36;;;;;;;;;;;-3.00;99.90;;;;;;5055181;28;20251;-48
2021/12/23 02:13:02;;;;;;;;;;;-3.00;99.90;;;;;;5055000;28;19925;-48
2021/12/23 02:15:31;;;;;;;;;;;-3.00;99.90;;;;;;5052997;28;19933;-48
2021/12/23 02:17:57;;;;;;;;;;;-2.90;99.90;;;;;;5052094;28;19932;-46
2021/12/23 02:20:28;;;;;;;;;;;-2.90;99.90;;;;;;5050794;28;20352;-48
2021/12/23 02:22:55;;;;;;;;;;;-2.90;99.90;;;;;;5054749;28;19947;-48
2021/12/23 02:25:22;;;;;;;;;;;-2.90;99.90;;;;;;5055112;28;19978;-48
2021/12/23 02:27:49;;;;;;;;;;;-3.10;99.90;;;;;;5055097;28;19925;-51
2021/12/23 02:30:18;;;;;;;;;;;-3.00;99.90;;;;;;5053869;28;19978;-49
2021/12/23 02:32:45;;;;;;;;;;;-3.10;99.90;;;;;;5054644;28;19991;-48
2021/12/23 02:35:12;;;;;;;;;;;-3.10;99.90;;;;;;5052903;28;19928;-48
2021/12/23 02:37:41;;;;;;;;;;;-3.20;99.90;;;;;;5054511;28;19971;-51
2021/12/23 02:40:09;;;;;;;;;;;-3.10;99.90;;;;;;5054164;28;19925;-48
2021/12/23 02:42:36;;;;;;;;;;;-3.20;99.90;;;;;;5054210;28;20386;-49
2021/12/23 02:45:04;;;;;;;;;;;-3.20;99.90;;;;;;5054456;28;19925;-49
2021/12/23 02:47:31;;;;;;;;;;;-3.30;99.90;;;;;;5054738;28;19978;-48
2021/12/23 02:49:58;;;;;;;;;;;-3.30;99.90;;;;;;5052151;28;20324;-49
2021/12/23 02:52:25;;;;;;;;;;;-3.40;99.90;;;;;;5054223;28;19925;-48
2021/12/23 02:54:57;;;;;;;;;;;-3.40;99.90;;;;;;5054501;28;20313;-49
2021/12/23 02:57:24;;;;;;;;;;;-3.30;99.90;;;;;;5054421;28;20331;-51
2021/12/23 02:59:50;;;;;;;;;;;-3.40;99.90;;;;;;5053506;28;20023;-49
2021/12/23 03:02:17;;;;;;;;;;;-3.50;99.90;;;;;;5054024;28;20338;-48
2021/12/23 03:04:44;;;;;;;;;;;-3.50;99.90;;;;;;5040646;28;19979;-48
2021/12/23 03:07:11;;;;;;;;;;;-3.60;99.90;;;;;;5035521;28;19975;-47
2021/12/23 03:09:38;;;;;;;;;;;-3.50;99.90;;;;;;5034708;28;19929;-48
2021/12/23 03:12:06;;;;;;;;;;;-3.50;99.90;;;;;;5033782;28;19956;-50
2021/12/23 03:14:33;;;;;;;;;;;-3.50;99.90;;;;;;5050364;28;19929;-48
2021/12/23 03:17:00;;;;;;;;;;;-3.50;99.90;;;;;;5054074;28;19978;-50
2021/12/23 03:19:27;;;;;;;;;;;-3.60;99.90;;;;;;5044576;28;19979;-49
2021/12/23 03:21:53;;;;;;;;;;;-3.60;99.90;;;;;;5034836;28;19925;-48
2021/12/23 03:24:20;;;;;;;;;;;-3.70;99.90;;;;;;5053950;28;19987;-51
2021/12/23 03:26:47;;;;;;;;;;;-3.80;99.90;;;;;;5053887;28;19994;-49
2021/12/23 03:29:15;;;;;;;;;;;-3.90;99.90;;;;;;5052695;28;19971;-48
2021/12/23 03:31:42;;;;;;;;;;;-4.00;99.90;;;;;;5053171;28;19987;-49
2021/12/23 03:34:09;;;;;;;;;;;-4.00;99.90;;;;;;5053385;28;19925;-49
2021/12/23 03:36:36;;;;;;;;;;;-4.00;99.90;;;;;;5052265;28;19924;-48
2021/12/23 03:39:04;;;;;;;;;;;-4.10;99.90;;;;;;5033901;28;19925;-50
2021/12/23 03:41:30;;;;;;;;;;;-4.00;99.90;;;;;;5034609;28;19933;-51
2021/12/23 03:43:57;;;;;;;;;;;-4.10;99.90;;;;;;5044543;28;19978;-48
2021/12/23 03:46:25;;;;;;;;;;;-4.10;99.90;;;;;;5053453;28;19925;-48
2021/12/23 03:48:52;;;;;;;;;;;-4.10;99.90;;;;;;5052085;28;19936;-49
2021/12/23 03:51:19;;;;;;;;;;;-4.20;99.90;;;;;;5052891;28;19994;-50
2021/12/23 03:53:46;;;;;;;;;;;-4.20;99.90;;;;;;5047021;28;19936;-49
2021/12/23 03:56:14;;;;;;;;;;;-4.30;99.90;;;;;;5033446;28;20469;-50
2021/12/23 03:58:40;;;;;;;;;;;-4.40;99.90;;;;;;5047459;28;20387;-52
2021/12/23 04:01:07;;;;;;;;;;;-4.40;99.90;;;;;;5036873;28;19925;-51
2021/12/23 04:03:35;;;;;;;;;;;-4.30;99.90;;;;;;5033083;28;20379;-48
2021/12/23 04:06:02;;;;;;;;;;;-4.40;99.90;;;;;;5052930;28;19928;-48
2021/12/23 04:08:29;;;;;;;;;;;-4.50;99.90;;;;;;5054137;28;19932;-48
2021/12/23 04:11:00;;;;;;;;;;;-4.40;99.90;;;;;;5052433;28;19925;-49
2021/12/23 04:13:26;;;;;;;;;;;-4.50;99.90;;;;;;5098304;22;19931;-48
2021/12/23 04:15:53;;;;;;;;;;;-4.30;99.90;;;;;;5093815;28;19970;-49
2021/12/23 04:18:20;;;;;;;;;;;-4.40;99.90;;;;;;5086450;28;20389;-49
2021/12/23 04:20:53;;;;;;;;;;;-4.40;99.90;;;;;;5108430;28;20385;-49
2021/12/23 04:23:21;;;;;;;;;;;-4.40;99.90;;;;;;5114062;28;19924;-49
2021/12/23 04:25:48;;;;;;;;;;;-4.40;99.90;;;;;;5114031;28;19923;-49
2021/12/23 04:28:15;;;;;;;;;;;-4.40;99.90;;;;;;5113993;28;19933;-49
2021/12/23 04:30:41;;;;;;;;;;;-4.40;99.90;;;;;;5096404;27;20109;-49
2021/12/23 04:33:08;;;;;;;;;;;-4.40;99.90;;;;;;5093071;28;19924;-49
2021/12/23 04:35:35;;;;;;;;;;;-4.40;99.90;;;;;;5095493;28;19928;-49
2021/12/23 04:38:03;;;;;;;;;;;-4.40;99.90;;;;;;5093523;28;19928;-49
2021/12/23 04:40:31;;;;;;;;;;;-4.30;99.90;;;;;;5093136;28;19984;-49
2021/12/23 04:42:58;;;;;;;;;;;-4.30;99.90;;;;;;5092856;28;19930;-49
2021/12/23 04:45:25;;;;;;;;;;;-4.40;99.90;;;;;;5093154;28;19993;-49
2021/12/23 04:47:51;;;;;;;;;;;-4.40;99.90;;;;;;5093133;28;20451;-49
2021/12/23 04:50:18;;;;;;;;;;;-4.40;99.90;;;;;;5097944;28;20339;-49
2021/12/23 04:52:45;;;;;;;;;;;-4.40;99.90;;;;;;5093000;28;20010;-49
2021/12/23 04:55:14;;;;;;;;;;;-4.40;99.90;;;;;;5092243;28;19928;-48
2021/12/23 04:57:41;;;;;;;;;;;-4.40;99.90;;;;;;5092735;28;19970;-49
2021/12/23 05:00:10;;;;;;;;;;;-4.40;99.90;;;;;;5092834;28;19924;-49
2021/12/23 05:02:37;;;;;;;;;;;-4.50;99.90;;;;;;5096423;28;19977;-50
2021/12/23 05:05:04;;;;;;;;;;;-4.50;99.90;;;;;;5092751;28;19942;-49
2021/12/23 05:07:32;;;;;;;;;;;-4.60;99.90;;;;;;5076398;28;20474;-49
2021/12/23 05:09:59;;;;;;;;;;;-4.60;99.90;;;;;;5092768;28;20390;-49
2021/12/23 05:12:27;;;;;;;;;;;-4.70;99.90;;;;;;5092379;28;20001;-49
2021/12/23 05:14:54;;;;;;;;;;;-4.60;99.90;;;;;;5092590;28;20350;-49
2021/12/23 05:17:21;;;;;;;;;;;-4.70;99.90;;;;;;5092523;28;20386;-48
2021/12/23 05:19:48;;;;;;;;;;;-4.60;99.90;;;;;;5099566;28;19973;-49
2021/12/23 05:22:14;;;;;;;;;;;-4.70;99.90;;;;;;5092550;28;19970;-49
2021/12/23 05:24:41;;;;;;;;;;;-4.70;99.90;;;;;;5092704;28;19978;-49
2021/12/23 05:27:08;;;;;;;;;;;-4.80;99.90;;;;;;5092500;28;20340;-49
2021/12/23 05:29:38;;;;;;;;;;;-4.90;99.90;;;;;;5098331;28;19973;-49
2021/12/23 05:32:05;;;;;;;;;;;-4.90;99.90;;;;;;5094082;28;20390;-49
2021/12/23 05:34:32;;;;;;;;;;;-5.00;99.90;;;;;;5093811;28;19924;-48
2021/12/23 05:36:59;;;;;;;;;;;-5.00;99.90;;;;;;5092826;28;20041;-49
2021/12/23 05:39:26;;;;;;;;;;;-5.00;99.90;;;;;;5092357;28;19924;-49
2021/12/23 05:41:52;;;;;;;;;;;-4.90;99.90;;;;;;5091458;28;19947;-49
2021/12/23 05:44:19;;;;;;;;;;;-4.90;99.90;;;;;;5092407;28;19950;-49
2021/12/23 05:46:47;;;;;;;;;;;-4.60;99.90;;;;;;5094009;28;19924;-48
2021/12/23 05:49:14;;;;;;;;;;;-4.50;99.90;;;;;;5095505;28;20393;-49
2021/12/23 05:51:41;;;;;;;;;;;-4.50;99.90;;;;;;5092074;28;19928;-49
2021/12/23 05:54:08;;;;;;;;;;;-4.40;99.90;;;;;;5092035;28;19927;-49
2021/12/23 05:56:35;;;;;;;;;;;-4.50;99.90;;;;;;5091939;28;19985;-49
2021/12/23 05:59:01;;;;;;;;;;;-4.60;99.90;;;;;;5092396;28;19924;-49
2021/12/23 06:01:28;;;;;;;;;;;-4.50;99.90;;;;;;5095012;28;19924;-48
2021/12/23 06:03:56;;;;;;;;;;;-4.60;99.90;;;;;;5094311;28;20347;-49
2021/12/23 06:06:23;;;;;;;;;;;-4.70;99.90;;;;;;5091961;28;19928;-49
2021/12/23 06:08:50;;;;;;;;;;;-4.80;99.90;;;;;;5092055;28;20341;-49
2021/12/23 06:11:17;;;;;;;;;;;-4.80;99.90;;;;;;5099579;28;19927;-48
2021/12/23 06:13:44;;;;;;;;;;;-4.90;99.90;;;;;;5096288;28;19928;-49
2021/12/23 06:16:10;;;;;;;;;;;-5.00;99.90;;;;;;5091626;28;19924;-49
2021/12/23 06:18:37;;;;;;;;;;;-5.10;99.90;;;;;;5090093;28;20454;-49
2021/12/23 06:21:05;;;;;;;;;;;-5.10;99.90;;;;;;5074359;28;19928;-49
2021/12/23 06:23:32;;;;;;;;;;;-5.20;99.90;;;;;;5072012;28;19936;-48
2021/12/23 06:26:02;;;;;;;;;;;-5.20;99.90;;;;;;5082891;28;19981;-48
2021/12/23 06:28:29;;;;;;;;;;;-5.20;99.90;;;;;;5099673;28;19924;-49
2021/12/23 06:30:58;;;;;;;;;;;-5.10;99.90;;;;;;5096140;28;19928;-49
2021/12/23 06:33:25;;;;;;;;;;;-5.00;99.90;;;;;;5091707;28;19975;-49
2021/12/23 06:35:52;;;;;;;;;;;-4.90;99.90;;;;;;5095501;28;19978;-49
2021/12/23 06:38:20;;;;;;;;;;;-4.80;99.90;;;;;;5091404;28;19927;-49
2021/12/23 06:40:47;;;;;;;;;;;-4.50;99.90;;;;;;5091824;28;19977;-49
2021/12/23 06:43:14;;;;;;;;;;;-4.60;99.90;;;;;;5091516;28;19928;-49
2021/12/23 06:45:41;;;;;;;;;;;-4.40;99.90;;;;;;5105274;28;19928;-48
2021/12/23 06:48:07;;;;;;;;;;;-4.40;99.90;;;;;;5091774;28;20354;-49
2021/12/23 06:50:34;;;;;;;;;;;-4.30;99.90;;;;;;5092837;28;19989;-49
2021/12/23 06:53:01;;;;;;;;;;;-4.40;99.90;;;;;;5092868;28;19981;-49
2021/12/23 06:55:29;;;;;;;;;;;-4.40;99.90;;;;;;5096537;28;19924;-49
2021/12/23 06:57:56;;;;;;;;;;;-4.20;99.90;;;;;;5086876;28;19924;-49
2021/12/23 07:00:24;;;;;;;;;;;-4.20;99.90;;;;;;5076193;28;19936;-49
2021/12/23 07:02:52;;;;;;;;;;;-4.20;99.90;;;;;;5093629;28;20408;-49
2021/12/23 07:05:19;;;;;;;;;;;-4.30;99.90;;;;;;5083867;28;19930;-49
2021/12/23 07:07:55;;;;;;;;;;;-4.40;99.90;;;;;;5094457;28;20392;-49
2021/12/23 07:10:23;;;;;;;;;;;-4.40;99.90;;;;;;5094541;28;19924;-49
2021/12/23 07:12:52;;;;;;;;;;;-4.30;99.90;;;;;;5094494;28;20386;-49
2021/12/23 07:15:19;;;;;;;;;;;-4.30;99.90;;;;;;5103621;28;19924;-49
2021/12/23 07:17:46;;;;;;;;;;;-4.20;99.90;;;;;;5086925;28;19931;-49
2021/12/23 07:20:12;;;;;;;;;;;-4.10;99.90;;;;;;5094989;28;19978;-49
2021/12/23 07:22:39;;;;;;;;;;;-4.00;99.90;;;;;;5094380;28;19928;-49
2021/12/23 07:25:07;;;;;;;;;;;-3.90;99.90;;;;;;5094741;28;19925;-49
2021/12/23 07:27:36;;;;;;;;;;;-3.80;99.90;;;;;;5094086;28;20480;-49
2021/12/23 07:30:05;;;;;;;;;;;-3.80;99.90;;;;;;5094148;28;20398;-49
2021/12/23 07:32:32;;;;;;;;;;;-3.70;99.90;;;;;;5090493;28;19947;-49
2021/12/23 07:34:59;;;;;;;;;;;-3.60;99.90;;;;;;5074463;28;19928;-49
2021/12/23 07:37:25;;;;;;;;;;;-3.60;99.90;;;;;;5084231;28;20351;-49
2021/12/23 07:39:54;;;;;;;;;;;-3.60;99.90;;;;;;5101401;28;20347;-49
2021/12/23 07:42:24;;;;;;;;;;;-3.50;99.90;;;;;;5087805;28;19971;-49
2021/12/23 07:44:52;;;;;;;;;;;-3.40;99.90;;;;;;5094242;28;19963;-49
2021/12/23 07:47:20;;;;;;;;;;;-3.30;99.90;;;;;;5087519;28;20014;-49
2021/12/23 07:49:47;;;;;;;;;;;-3.20;99.90;;;;;;5090466;28;19978;-49
2021/12/23 07:52:14;;;;;;;;;;;-3.10;99.90;;;;;;5087933;28;19924;-49
2021/12/23 07:54:41;;;;;;;;;;;-3.00;99.90;;;;;;5088402;28;19970;-49
2021/12/23 07:57:08;;;;;;;;;;;-3.00;99.90;;;;;;5095971;28;19924;-49
2021/12/23 07:59:34;;;;;;;;;;;-2.90;99.90;;;;;;5092970;28;19932;-49
2021/12/23 08:02:01;;;;;;;;;;;-2.70;99.90;;;;;;5077622;28;21671;-49
2021/12/23 08:04:30;;;;;;;;;;;-2.50;99.90;;;;;;5086778;28;20286;-49
2021/12/23 08:06:58;;;;;;;;;;;-2.30;99.90;;;;;;5085538;28;20023;-49
2021/12/23 08:09:26;;;;;;;;;;;-2.00;99.90;;;;;;5090285;28;19935;-49
2021/12/23 08:11:53;;;;;;;;;;;-1.90;99.90;;;;;;5093334;28;19928;-49
2021/12/23 08:14:21;;;;;;;;;;;-1.80;99.90;;;;;;5093449;28;19931;-49
2021/12/23 08:16:48;;;;;;;;;;;-1.70;99.90;;;;;;5107222;28;19923;-50
2021/12/23 08:19:14;;;;;;;;;;;-1.50;99.90;;;;;;5112997;28;19977;-50
2021/12/23 08:21:43;;;;;;;;;;;-1.30;99.90;;;;;;5094413;28;20310;-50
2021/12/23 08:24:09;;;;;;;;;;;-1.10;99.90;;;;;;5093137;28;19924;-49
2021/12/23 08:26:42;;;;;;;;;;;-1.10;99.90;;;;;;5093668;28;19970;-49
2021/12/23 08:29:08;;;;;;;;;;;-1.30;99.90;;;;;;5093596;28;19952;-50
2021/12/23 08:31:35;;;;;;;;;;;-1.50;99.90;;;;;;5093399;28;20459;-49
2021/12/23 08:34:02;;;;;;;;;;;-1.40;99.90;;;;;;5098660;28;20318;-49
2021/12/23 08:36:29;;;;;;;;;;;-1.20;99.90;;;;;;5094613;28;19928;-50
2021/12/23 08:38:58;;;;;;;;;;;-1.10;99.90;;;;;;5095773;28;19931;-50
2021/12/23 08:41:25;;;;;;;;;;;-0.90;99.90;;;;;;5115163;28;20332;-50
2021/12/23 08:43:51;;;;;;;;;;;-1.10;99.90;;;;;;5116797;28;19977;-50
2021/12/23 08:46:18;;;;;;;;;;;-0.90;99.90;;;;;;5092720;28;19969;-50
2021/12/23 08:48:45;;;;;;;;;;;-0.90;99.90;;;;;;5092123;28;19966;-50
2021/12/23 08:51:12;;;;;;;;;;;-1.10;99.90;;;;;;5092724;28;19974;-50
2021/12/23 08:53:39;;;;;;;;;;;-1.00;99.90;;;;;;5095616;28;19977;-50
2021/12/23 08:56:08;;;;;;;;;;;-1.00;99.90;;;;;;5096414;28;19964;-50
2021/12/23 08:58:36;;;;;;;;;;;-0.90;99.90;;;;;;5093154;28;19934;-50
2021/12/23 09:01:03;;;;;;;;;;;-0.90;99.90;;;;;;5100102;28;19923;-50
2021/12/23 09:03:32;;;;;;;;;;;-1.00;99.90;;;;;;5092641;28;20574;-50
2021/12/23 09:06:00;;;;;;;;;;;-1.10;99.90;;;;;;5097235;28;19930;-49
2021/12/23 09:08:26;;;;;;;;;;;-0.90;99.90;;;;;;5092963;28;20014;-49
2021/12/23 09:10:53;;;;;;;;;;;-0.50;99.90;;;;;;5093742;28;19924;-50
2021/12/23 09:13:22;;;;;;;;;;;-0.60;99.90;;;;;;5092612;28;19977;-49
2021/12/23 09:15:48;;;;;;;;;;;-0.70;99.90;;;;;;5094124;28;19924;-49
2021/12/23 09:18:15;;;;;;;;;;;-0.70;99.90;;;;;;5104938;28;19981;-49
2021/12/23 09:20:43;;;;;;;;;;;-0.40;99.90;;;;;;5092378;28;19924;-50
2021/12/23 09:23:10;;;;;;;;;;;-0.10;99.90;;;;;;5098041;28;19932;-49
2021/12/23 09:25:37;;;;;;;;;;;0.30;99.90;;;;;;5098052;28;19998;-50
2021/12/23 09:28:13;;;;;;;;;;;0.40;99.90;;;;;;5092354;28;20343;-49
2021/12/23 09:33:25;;;;;;;;;;;0.90;99.90;;;;;;5100107;28;19935;-50
2021/12/23 09:35:52;;;;;;;;;;;0.90;99.90;;;;;;5092009;28;19924;-50
2021/12/23 09:38:26;;;;;;;;;;;0.80;99.90;;;;;;5093369;28;19924;-50
2021/12/23 09:40:54;;;;;;;;;;;0.70;99.90;;;;;;5092108;28;19946;-50
2021/12/23 09:43:22;;;;;;;;;;;0.50;99.90;;;;;;5092010;28;19924;-50
2021/12/23 09:45:51;;;;;;;;;;;0.40;99.90;;;;;;5096889;28;19981;-50
2021/12/23 09:48:21;;;;;;;;;;;0.20;99.90;;;;;;5112705;28;20418;-50
2021/12/23 09:50:49;;;;;;;;;;;0.10;99.90;;;;;;5112798;28;19957;-50
2021/12/23 09:53:16;;;;;;;;;;;0.00;99.90;;;;;;5097024;28;19985;-50
2021/12/23 09:55:43;;;;;;;;;;;0.00;99.90;;;;;;5112272;28;19969;-50
2021/12/23 09:58:10;;;;;;;;;;;0.00;99.90;;;;;;5112572;28;19977;-49
2021/12/23 10:00:39;;;;;;;;;;;-0.10;99.90;;;;;;5109220;28;20443;-50
2021/12/23 10:03:08;;;;;;;;;;;0.00;99.90;;;;;;5089453;28;19928;-50
2021/12/23 10:05:36;;;;;;;;;;;0.00;99.90;;;;;;5092006;28;19977;-50
2021/12/23 10:08:05;;;;;;;;;;;0.20;99.90;;;;;;5092075;28;19977;-50
2021/12/23 10:10:36;;;;;;;;;;;0.60;99.90;;;;;;5092063;28;20416;-50
2021/12/23 10:26:49;;;;;;;;;;;1.40;99.90;;;;;;5115655;22;19924;-49
2021/12/23 10:32:48;;;;;;;;;;;6.60;99.90;;;;;;5058945;28;20015;-48
2021/12/23 10:38:03;;;;;;;;;;;6.70;99.90;;;;;;5072890;28;19931;-50
2021/12/23 10:40:31;;;;;;;;;;;6.00;99.90;;;;;;5073351;28;19981;-49
2021/12/23 10:42:58;;;;;;;;;;;4.90;99.90;;;;;;5062704;28;20019;-50
2021/12/23 10:45:25;;;;;;;;;;;4.30;99.90;;;;;;5072632;28;20001;-49
2021/12/23 10:47:57;;;;;;;;;;;3.60;99.90;;;;;;5072742;28;19924;-49
2021/12/23 10:50:32;;;;;;;;;;;3.00;99.90;;;;;;5072416;28;19928;-49
2021/12/23 10:53:03;;;;;;;;;;;2.80;99.90;;;;;;5061553;28;19925;-46
2021/12/23 10:58:16;;;;;;;;;;;2.60;99.90;;;;;;5052769;28;19967;-48
2021/12/23 11:00:46;;;;;;;;;;;2.50;99.90;;;;;;5053584;28;19928;-48
2021/12/23 11:03:18;;;;;;;;;;;2.70;99.90;;;;;;5065195;28;19928;-47
2021/12/23 11:05:51;;;;;;;;;;;2.70;99.90;;;;;;5072662;28;19936;-48
2021/12/23 11:08:26;;;;;;;;;;;2.50;99.90;;;;;;5072774;28;19928;-48
2021/12/23 11:11:18;;;;;;;;;;;2.60;99.90;;;;;;5072943;28;19925;-47
2021/12/23 11:28:24;;;;;;;;;;;2.30;99.90;;;;;;5061582;28;20016;-47
2021/12/23 11:39:36;;;;;;;;;;;2.50;99.90;;;;;;5032520;28;19969;-47
2021/12/23 11:42:10;;;;;;;;;;;2.50;99.90;;;;;;5054434;28;20311;-47
2021/12/23 11:44:37;;;;;;;;;;;2.60;99.90;;;;;;5072507;28;19924;-47
2021/12/23 11:47:09;;;;;;;;;;;2.80;99.90;;;;;;5072110;28;20335;-47
2021/12/23 11:49:40;;;;;;;;;;;2.90;99.90;;;;;;5072334;28;19939;-48
2021/12/23 11:52:07;;;;;;;;;;;2.80;99.90;;;;;;5070541;28;19925;-48
2021/12/23 11:54:37;;;;;;;;;;;2.90;99.90;;;;;;5052053;28;19931;-48
2021/12/23 11:57:04;;;;;;;;;;;3.00;99.90;;;;;;5052625;28;20362;-48
2021/12/23 11:59:31;;;;;;;;;;;3.10;99.90;;;;;;5052219;28;20353;-48
2021/12/23 12:01:58;;;;;;;;;;;3.50;99.90;;;;;;5053969;28;19927;-48
2021/12/23 12:04:26;;;;;;;;;;;3.70;99.90;;;;;;5072215;28;19932;-47
2021/12/23 12:06:54;;;;;;;;;;;3.70;99.90;;;;;;5071580;28;20308;-48
2021/12/23 12:09:23;;;;;;;;;;;3.80;99.90;;;;;;5071474;28;19929;-48
2021/12/23 12:12:05;;;;;;;;;;;3.90;99.90;;;;;;5071089;28;19931;-48
2021/12/23 12:14:40;;;;;;;;;;;3.70;99.90;;;;;;5071152;28;19976;-48
2021/12/23 12:17:25;;;;;;;;;;;3.50;99.90;;;;;;5071518;28;20002;-47
2021/12/23 12:19:53;;;;;;;;;;;3.40;99.90;;;;;;5066169;28;19928;-48
2021/12/23 12:22:35;;;;;;;;;;;3.40;99.90;;;;;;5070807;28;19932;-48
2021/12/23 12:25:02;;;;;;;;;;;3.50;99.90;;;;;;5062824;28;19925;-48
2021/12/23 12:27:32;;;;;;;;;;;3.30;99.90;;;;;;5051953;28;19925;-48
2021/12/23 12:30:06;;;;;;;;;;;3.30;99.90;;;;;;5051212;28;19932;-48
2021/12/23 12:32:36;;;;;;;;;;;3.40;99.90;;;;;;5053601;28;20401;-48
2021/12/23 12:35:11;;;;;;;;;;;3.60;99.90;;;;;;5062103;28;19986;-47
2021/12/23 12:37:40;;;;;;;;;;;3.70;99.90;;;;;;5057398;28;19998;-48
2021/12/23 12:40:08;;;;;;;;;;;3.90;99.90;;;;;;5051219;28;19978;-48
2021/12/23 12:42:40;;;;;;;;;;;4.00;99.90;;;;;;5065285;28;19970;-48
2021/12/23 12:45:11;;;;;;;;;;;4.10;99.90;;;;;;5059429;28;19924;-47
2021/12/23 12:47:48;;;;;;;;;;;4.20;99.90;;;;;;5061174;28;19924;-48
2021/12/23 12:50:16;;;;;;;;;;;4.30;99.90;;;;;;5057360;28;19929;-48
2021/12/23 12:52:45;;;;;;;;;;;4.40;99.90;;;;;;5051135;28;19933;-47
2021/12/23 12:55:13;;;;;;;;;;;4.50;99.90;;;;;;5070227;28;20362;-48
2021/12/23 12:57:43;;;;;;;;;;;4.70;99.90;;;;;;5070501;28;20216;-47
2021/12/23 13:00:34;;;;;;;;;;;4.70;99.90;;;;;;5067119;28;20278;-48
2021/12/23 13:03:04;;;;;;;;;;;4.70;99.90;;;;;;5059588;28;20310;-50
2021/12/23 13:05:33;;;;;;;;;;;4.80;99.90;;;;;;5051401;28;19972;-49
2021/12/23 13:08:05;;;;;;;;;;;4.80;99.90;;;;;;5064857;28;19978;-49
2021/12/23 13:10:33;;;;;;;;;;;4.80;99.90;;;;;;5050544;28;19928;-49
2021/12/23 13:13:04;;;;;;;;;;;4.90;99.90;;;;;;5054419;28;19979;-48
2021/12/23 13:15:32;;;;;;;;;;;5.00;99.90;;;;;;5058405;28;20486;-49
2021/12/23 13:18:00;;;;;;;;;;;4.80;99.90;;;;;;5070152;28;19932;-49
2021/12/23 13:20:32;;;;;;;;;;;4.70;99.90;;;;;;5069873;28;19924;-49
2021/12/23 13:23:00;;;;;;;;;;;4.90;99.90;;;;;;5063781;28;19948;-48
2021/12/23 13:25:26;;;;;;;;;;;5.10;99.90;;;;;;5066224;28;19970;-50
2021/12/23 13:27:53;;;;;;;;;;;5.30;99.90;;;;;;5070130;28;20002;-50
2021/12/23 13:30:21;;;;;;;;;;;5.60;99.90;;;;;;5069838;28;20000;-49
2021/12/23 13:32:57;;;;;;;;;;;6.00;99.90;;;;;;5065453;28;19979;-50
2021/12/23 13:35:23;;;;;;;;;;;6.20;99.90;;;;;;5049981;28;19963;-50
2021/12/23 13:37:50;;;;;;;;;;;6.40;99.90;;;;;;5051224;28;20000;-50
2021/12/23 13:40:25;;;;;;;;;;;6.40;99.90;;;;;;5051190;28;19924;-54
2021/12/23 13:42:52;;;;;;;;;;;6.40;99.90;;;;;;5050956;28;19929;-52
2021/12/23 13:45:21;;;;;;;;;;;6.40;99.90;;;;;;5050748;28;20359;-49
2021/12/23 13:47:51;;;;;;;;;;;6.40;99.90;;;;;;5056529;28;19994;-50
2021/12/23 13:50:20;;;;;;;;;;;6.10;99.90;;;;;;5065114;28;19925;-48
2021/12/23 13:52:48;;;;;;;;;;;5.80;99.90;;;;;;5055425;28;21491;-50
2021/12/23 13:55:16;;;;;;;;;;;5.60;99.90;;;;;;5050115;28;19925;-50
2021/12/23 13:57:46;;;;;;;;;;;5.70;99.90;;;;;;5049633;28;19924;-49
2021/12/23 14:00:14;;;;;;;;;;;5.60;99.90;;;;;;5049642;28;20054;-49
2021/12/23 14:02:43;;;;;;;;;;;5.40;99.90;;;;;;5051238;28;19924;-49
2021/12/23 14:05:10;;;;;;;;;;;5.40;99.90;;;;;;5071733;28;20273;-49
2021/12/23 14:07:39;;;;;;;;;;;5.40;99.90;;;;;;5071992;28;19924;-47
2021/12/23 14:10:07;;;;;;;;;;;5.40;99.90;;;;;;5070629;28;19925;-49
2021/12/23 14:12:45;;;;;;;;;;;5.30;99.90;;;;;;5072270;28;19933;-48
2021/12/23 14:15:12;;;;;;;;;;;5.10;99.90;;;;;;5054217;28;19942;-48
2021/12/23 14:17:41;;;;;;;;;;;5.00;99.90;;;;;;5053601;28;19928;-48
2021/12/23 14:23:14;;;;;;;;;;;5.00;99.90;;;;;;5058349;28;19942;-48
2021/12/23 14:25:42;;;;;;;;;;;5.00;99.90;;;;;;5072980;28;19983;-47
2021/12/23 14:28:09;;;;;;;;;;;4.90;99.90;;;;;;5070202;28;19987;-48
2021/12/23 14:30:38;;;;;;;;;;;4.80;99.90;;;;;;5054326;28;19971;-48
2021/12/23 14:33:09;;;;;;;;;;;4.60;99.90;;;;;;5053218;28;19987;-49
2021/12/23 14:35:35;;;;;;;;;;;4.60;99.90;;;;;;5053144;28;19928;-48
2021/12/23 14:38:02;;;;;;;;;;;4.70;99.90;;;;;;5057541;28;19985;-49
2021/12/23 14:40:30;;;;;;;;;;;4.60;99.90;;;;;;5071221;28;19924;-48
2021/12/23 14:42:58;;;;;;;;;;;4.60;99.90;;;;;;5069152;28;20024;-47
2021/12/23 14:45:25;;;;;;;;;;;4.60;99.90;;;;;;5052806;28;20002;-48
2021/12/23 14:47:58;;;;;;;;;;;4.40;99.90;;;;;;5069518;28;19924;-49
2021/12/23 14:50:25;;;;;;;;;;;4.20;99.90;;;;;;5072170;28;19928;-48
2021/12/23 14:52:54;;;;;;;;;;;4.20;99.90;;;;;;5067872;28;19951;-48
2021/12/23 14:55:22;;;;;;;;;;;4.00;99.90;;;;;;5052687;28;19940;-49
2021/12/23 14:57:52;;;;;;;;;;;3.90;99.90;;;;;;5053149;28;20417;-48
2021/12/23 15:00:20;;;;;;;;;;;3.80;99.90;;;;;;5052540;28;19932;-49
2021/12/23 15:02:47;;;;;;;;;;;3.70;99.90;;;;;;5052822;28;19999;-48
2021/12/23 15:05:15;;;;;;;;;;;3.80;99.90;;;;;;5053322;28;19962;-48
2021/12/23 15:07:45;;;;;;;;;;;3.90;99.90;;;;;;5055562;28;19932;-48
2021/12/23 15:10:13;;;;;;;;;;;3.90;99.90;;;;;;5073464;28;19929;-47
2021/12/23 15:12:40;;;;;;;;;;;3.90;99.90;;;;;;5066878;28;20560;-48
2021/12/23 15:15:09;;;;;;;;;;;3.90;99.90;;;;;;5062955;28;19924;-49
2021/12/23 15:17:45;;;;;;;;;;;3.90;99.90;;;;;;5059297;28;20367;-49
2021/12/23 15:20:17;;;;;;;;;;;3.90;99.90;;;;;;5076425;28;19925;-48
2021/12/23 15:22:45;;;;;;;;;;;3.90;99.90;;;;;;5074153;28;19970;-47